sensor_id;sensor_type;location;lat;lon;timestamp;temperature;humidity
27619;DHT22;15039;50.830;4.730;2023-11-19T00:02:08;14.00;99.90
27619;DHT22;15039;50.830;4.730;2023-11-19T00:04:38;14.00;99.90
27619;DHT22;15039;50.830;4.730;2023-11-19T00:07:06;14.10;99.90
27619;DHT22;15039;50.830;4.730;2023-11-19T00:09:34;14.10;99.90
27619;DHT22;15039;50.830;4.730;2023-11-19T00:12:03;14.00;99.90
27619;DHT22;15039;50.830;4.730;2023-11-19T00:14:29;14.10;99.90
27619;DHT22;15039;50.830;4.730;2023-11-19T00:16:56;14.10;99.90
27619;DHT22;15039;50.830;4.730;2023-11-19T00:19:21;14.20;99.90
27619;DHT22;15039;50.830;4.730;2023-11-19T00:21:47;14.20;99.90
27619;DHT22;15039;50.830;4.730;2023-11-19T00:24:13;14.20;99.90
27619;DHT22;15039;50.830;4.730;2023-11-19T00:26:41;14.20;99.90
27619;DHT22;15039;50.830;4.730;2023-11-19T00:29:07;14.10;99.90
27619;DHT22;15039;50.830;4.730;2023-11-19T00:31:33;14.10;99.90
27619;DHT22;15039;50.830;4.730;2023-11-19T00:33:58;14.10;99.90
27619;DHT22;15039;50.830;4.730;2023-11-19T00:36:24;14.10;99.90
27619;DHT22;15039;50.830;4.730;2023-11-19T00:38:51;14.10;99.90
27619;DHT22;15039;50.830;4.730;2023-11-19T00:41:18;14.10;99.90
27619;DHT22;15039;50.830;4.730;2023-11-19T00:43:45;14.20;99.90
27619;DHT22;15039;50.830;4.730;2023-11-19T00:46:11;14.10;99.90
27619;DHT22;15039;50.830;4.730;2023-11-19T00:48:37;14.10;99.90
27619;DHT22;15039;50.830;4.730;2023-11-19T00:51:03;14.20;99.90
27619;DHT22;15039;50.830;4.730;2023-11-19T00:53:32;14.20;99.90
27619;DHT22;15039;50.830;4.730;2023-11-19T00:55:59;14.20;99.90
27619;DHT22;15039;50.830;4.730;2023-11-19T00:58:25;14.20;99.90
27619;DHT22;15039;50.830;4.730;2023-11-19T01:00:50;14.20;99.90
27619;DHT22;15039;50.830;4.730;2023-11-19T01:03:16;14.20;99.90
27619;DHT22;15039;50.830;4.730;2023-11-19T01:05:42;14.20;99.90
27619;DHT22;15039;50.830;4.730;2023-11-19T01:08:08;14.10;99.90
27619;DHT22;15039;50.830;4.730;2023-11-19T01:10:33;14.10;99.90
27619;DHT22;15039;50.830;4.730;2023-11-19T01:12:59;14.10;99.90
27619;DHT22;15039;50.830;4.730;2023-11-19T01:15:25;14.20;99.90
27619;DHT22;15039;50.830;4.730;2023-11-19T01:17:51;14.10;99.90
27619;DHT22;15039;50.830;4.730;2023-11-19T01:20:17;14.10;99.90
27619;DHT22;15039;50.830;4.730;2023-11-19T01:22:43;14.10;99.90
27619;DHT22;15039;50.830;4.730;2023-11-19T01:25:09;14.20;99.90
27619;DHT22;15039;50.830;4.730;2023-11-19T01:27:34;14.10;99.90
27619;DHT22;15039;50.830;4.730;2023-11-19T01:30:01;14.10;99.90
27619;DHT22;15039;50.830;4.730;2023-11-19T01:32:32;14.20;99.90
27619;DHT22;15039;50.830;4.730;2023-11-19T01:34:57;14.10;99.90
27619;DHT22;15039;50.830;4.730;2023-11-19T01:37:23;14.10;99.90
27619;DHT22;15039;50.830;4.730;2023-11-19T01:39:49;14.10;99.90
27619;DHT22;15039;50.830;4.730;2023-11-19T01:42:14;14.20;99.90
27619;DHT22;15039;50.830;4.730;2023-11-19T01:44:41;14.20;99.90
27619;DHT22;15039;50.830;4.730;2023-11-19T01:47:08;14.10;99.90
27619;DHT22;15039;50.830;4.730;2023-11-19T01:49:34;14.20;99.90
27619;DHT22;15039;50.830;4.730;2023-11-19T01:52:00;14.30;99.90
27619;DHT22;15039;50.830;4.730;2023-11-19T01:54:26;14.20;99.90
27619;DHT22;15039;50.830;4.730;2023-11-19T01:56:55;14.20;99.90
27619;DHT22;15039;50.830;4.730;2023-11-19T01:59:23;14.20;99.90
27619;DHT22;15039;50.830;4.730;2023-11-19T02:01:55;14.10;99.90
27619;DHT22;15039;50.830;4.730;2023-11-19T02:04:20;14.00;99.90
27619;DHT22;15039;50.830;4.730;2023-11-19T02:06:48;13.90;99.90
27619;DHT22;15039;50.830;4.730;2023-11-19T02:09:15;13.90;99.90
27619;DHT22;15039;50.830;4.730;2023-11-19T02:11:45;13.90;99.90
27619;DHT22;15039;50.830;4.730;2023-11-19T02:14:10;13.90;99.90
27619;DHT22;15039;50.830;4.730;2023-11-19T02:16:36;13.80;99.90
27619;DHT22;15039;50.830;4.730;2023-11-19T02:19:02;13.80;99.90
27619;DHT22;15039;50.830;4.730;2023-11-19T02:21:29;13.80;99.90
27619;DHT22;15039;50.830;4.730;2023-11-19T02:23:54;13.80;99.90
27619;DHT22;15039;50.830;4.730;2023-11-19T02:27:05;13.90;99.90
27619;DHT22;15039;50.830;4.730;2023-11-19T02:29:33;13.80;99.90
27619;DHT22;15039;50.830;4.730;2023-11-19T02:32:00;13.80;99.90
27619;DHT22;15039;50.830;4.730;2023-11-19T02:34:28;13.70;99.90
27619;DHT22;15039;50.830;4.730;2023-11-19T02:36:54;13.60;99.90
27619;DHT22;15039;50.830;4.730;2023-11-19T02:39:20;13.70;99.90
27619;DHT22;15039;50.830;4.730;2023-11-19T02:41:47;13.60;99.90
27619;DHT22;15039;50.830;4.730;2023-11-19T02:44:16;13.60;99.90
27619;DHT22;15039;50.830;4.730;2023-11-19T02:46:42;13.60;99.90
27619;DHT22;15039;50.830;4.730;2023-11-19T02:49:07;13.60;99.90
27619;DHT22;15039;50.830;4.730;2023-11-19T02:51:33;13.60;99.90
27619;DHT22;15039;50.830;4.730;2023-11-19T02:54:00;13.50;99.90
27619;DHT22;15039;50.830;4.730;2023-11-19T02:56:26;13.50;99.90
27619;DHT22;15039;50.830;4.730;2023-11-19T02:58:52;13.50;99.90
27619;DHT22;15039;50.830;4.730;2023-11-19T03:01:24;13.50;99.90
27619;DHT22;15039;50.830;4.730;2023-11-19T03:03:55;13.50;99.90
27619;DHT22;15039;50.830;4.730;2023-11-19T03:06:23;13.60;99.90
27619;DHT22;15039;50.830;4.730;2023-11-19T03:08:48;13.50;99.90
27619;DHT22;15039;50.830;4.730;2023-11-19T03:11:14;13.70;99.90
27619;DHT22;15039;50.830;4.730;2023-11-19T03:13:40;13.70;99.90
27619;DHT22;15039;50.830;4.730;2023-11-19T03:16:06;13.80;99.90
27619;DHT22;15039;50.830;4.730;2023-11-19T03:18:32;13.80;99.90
27619;DHT22;15039;50.830;4.730;2023-11-19T03:20:58;13.80;99.90
27619;DHT22;15039;50.830;4.730;2023-11-19T03:23:24;13.60;99.90
27619;DHT22;15039;50.830;4.730;2023-11-19T03:25:53;13.60;99.90
27619;DHT22;15039;50.830;4.730;2023-11-19T03:28:19;13.50;99.90
27619;DHT22;15039;50.830;4.730;2023-11-19T03:30:45;13.50;99.90
27619;DHT22;15039;50.830;4.730;2023-11-19T03:33:10;13.50;99.90
27619;DHT22;15039;50.830;4.730;2023-11-19T03:35:36;13.50;99.90
27619;DHT22;15039;50.830;4.730;2023-11-19T03:38:02;13.50;99.90
27619;DHT22;15039;50.830;4.730;2023-11-19T03:40:28;13.40;99.90
27619;DHT22;15039;50.830;4.730;2023-11-19T03:42:56;13.40;99.90
27619;DHT22;15039;50.830;4.730;2023-11-19T03:45:22;13.40;99.90
27619;DHT22;15039;50.830;4.730;2023-11-19T03:47:48;13.30;99.90
27619;DHT22;15039;50.830;4.730;2023-11-19T03:50:15;13.20;99.90
27619;DHT22;15039;50.830;4.730;2023-11-19T03:52:41;13.20;99.90
27619;DHT22;15039;50.830;4.730;2023-11-19T03:55:07;13.20;99.90
27619;DHT22;15039;50.830;4.730;2023-11-19T03:57:34;13.20;99.90
27619;DHT22;15039;50.830;4.730;2023-11-19T04:00:00;13.10;99.90
27619;DHT22;15039;50.830;4.730;2023-11-19T04:02:28;13.20;99.90
27619;DHT22;15039;50.830;4.730;2023-11-19T04:04:54;13.10;99.90
27619;DHT22;15039;50.830;4.730;2023-11-19T04:07:20;13.10;99.90
27619;DHT22;15039;50.830;4.730;2023-11-19T04:09:46;13.10;99.90
27619;DHT22;15039;50.830;4.730;2023-11-19T04:12:12;13.00;99.90
27619;DHT22;15039;50.830;4.730;2023-11-19T04:14:37;13.00;99.90
27619;DHT22;15039;50.830;4.730;2023-11-19T04:17:03;13.00;99.90
27619;DHT22;15039;50.830;4.730;2023-11-19T04:19:29;13.00;99.90
27619;DHT22;15039;50.830;4.730;2023-11-19T04:21:54;12.90;99.90
27619;DHT22;15039;50.830;4.730;2023-11-19T04:24:20;12.90;99.90
27619;DHT22;15039;50.830;4.730;2023-11-19T04:26:46;12.90;99.90
27619;DHT22;15039;50.830;4.730;2023-11-19T04:29:16;13.00;99.90
27619;DHT22;15039;50.830;4.730;2023-11-19T04:31:45;13.10;99.90
27619;DHT22;15039;50.830;4.730;2023-11-19T04:34:11;13.10;99.90
27619;DHT22;15039;50.830;4.730;2023-11-19T04:36:37;13.00;99.90
27619;DHT22;15039;50.830;4.730;2023-11-19T04:39:04;13.10;99.90
27619;DHT22;15039;50.830;4.730;2023-11-19T04:41:35;13.10;99.90
27619;DHT22;15039;50.830;4.730;2023-11-19T04:44:01;13.10;99.90
27619;DHT22;15039;50.830;4.730;2023-11-19T04:46:27;13.00;99.90
27619;DHT22;15039;50.830;4.730;2023-11-19T04:48:53;13.00;99.90
27619;DHT22;15039;50.830;4.730;2023-11-19T04:51:18;13.00;99.90
27619;DHT22;15039;50.830;4.730;2023-11-19T04:53:44;13.00;99.90
27619;DHT22;15039;50.830;4.730;2023-11-19T04:56:12;13.00;99.90
27619;DHT22;15039;50.830;4.730;2023-11-19T04:58:39;13.00;99.90
27619;DHT22;15039;50.830;4.730;2023-11-19T05:01:05;13.00;99.90
27619;DHT22;15039;50.830;4.730;2023-11-19T05:03:31;13.00;99.90
27619;DHT22;15039;50.830;4.730;2023-11-19T05:05:57;13.00;99.90
27619;DHT22;15039;50.830;4.730;2023-11-19T05:08:23;12.90;99.90
27619;DHT22;15039;50.830;4.730;2023-11-19T05:10:50;12.90;99.90
27619;DHT22;15039;50.830;4.730;2023-11-19T05:13:16;12.90;99.90
27619;DHT22;15039;50.830;4.730;2023-11-19T05:15:42;12.90;99.90
27619;DHT22;15039;50.830;4.730;2023-11-19T05:18:08;13.10;99.90
27619;DHT22;15039;50.830;4.730;2023-11-19T05:20:34;13.10;99.90
27619;DHT22;15039;50.830;4.730;2023-11-19T05:23:01;13.20;99.90
27619;DHT22;15039;50.830;4.730;2023-11-19T05:25:27;13.20;99.90
27619;DHT22;15039;50.830;4.730;2023-11-19T05:27:53;13.10;99.90
27619;DHT22;15039;50.830;4.730;2023-11-19T05:30:19;13.10;99.90
27619;DHT22;15039;50.830;4.730;2023-11-19T05:32:45;13.10;99.90
27619;DHT22;15039;50.830;4.730;2023-11-19T05:35:11;13.00;99.90
27619;DHT22;15039;50.830;4.730;2023-11-19T05:37:37;12.90;99.90
27619;DHT22;15039;50.830;4.730;2023-11-19T05:40:03;12.90;99.90
27619;DHT22;15039;50.830;4.730;2023-11-19T05:42:32;12.80;99.90
27619;DHT22;15039;50.830;4.730;2023-11-19T05:44:57;12.70;99.90
27619;DHT22;15039;50.830;4.730;2023-11-19T05:47:23;12.70;99.90
27619;DHT22;15039;50.830;4.730;2023-11-19T05:49:48;12.70;99.90
27619;DHT22;15039;50.830;4.730;2023-11-19T05:52:14;12.70;99.90
27619;DHT22;15039;50.830;4.730;2023-11-19T05:54:40;12.70;99.90
27619;DHT22;15039;50.830;4.730;2023-11-19T05:57:06;12.60;99.90
27619;DHT22;15039;50.830;4.730;2023-11-19T05:59:35;12.70;99.90
27619;DHT22;15039;50.830;4.730;2023-11-19T06:02:02;12.60;99.90
27619;DHT22;15039;50.830;4.730;2023-11-19T06:04:28;12.60;99.90
27619;DHT22;15039;50.830;4.730;2023-11-19T06:06:53;12.70;99.90
27619;DHT22;15039;50.830;4.730;2023-11-19T06:09:20;12.70;99.90
27619;DHT22;15039;50.830;4.730;2023-11-19T06:11:46;12.70;99.90
27619;DHT22;15039;50.830;4.730;2023-11-19T06:14:12;12.70;99.90
27619;DHT22;15039;50.830;4.730;2023-11-19T06:16:38;12.70;99.90
27619;DHT22;15039;50.830;4.730;2023-11-19T06:19:05;12.70;99.90
27619;DHT22;15039;50.830;4.730;2023-11-19T06:21:31;12.60;99.90
27619;DHT22;15039;50.830;4.730;2023-11-19T06:23:56;12.60;99.90
27619;DHT22;15039;50.830;4.730;2023-11-19T06:26:22;12.60;99.90
27619;DHT22;15039;50.830;4.730;2023-11-19T06:28:48;12.50;99.90
27619;DHT22;15039;50.830;4.730;2023-11-19T06:31:14;12.40;99.90
27619;DHT22;15039;50.830;4.730;2023-11-19T06:33:41;12.50;99.90
27619;DHT22;15039;50.830;4.730;2023-11-19T06:36:08;12.40;99.90
27619;DHT22;15039;50.830;4.730;2023-11-19T06:38:34;12.40;99.90
27619;DHT22;15039;50.830;4.730;2023-11-19T06:41:00;12.30;99.90
27619;DHT22;15039;50.830;4.730;2023-11-19T06:43:26;12.30;99.90
27619;DHT22;15039;50.830;4.730;2023-11-19T06:45:53;12.30;99.90
27619;DHT22;15039;50.830;4.730;2023-11-19T06:48:19;12.20;99.90
27619;DHT22;15039;50.830;4.730;2023-11-19T06:50:44;12.20;99.90
27619;DHT22;15039;50.830;4.730;2023-11-19T06:53:10;12.20;99.90
27619;DHT22;15039;50.830;4.730;2023-11-19T06:55:35;12.10;99.90
27619;DHT22;15039;50.830;4.730;2023-11-19T06:58:01;12.10;99.90
27619;DHT22;15039;50.830;4.730;2023-11-19T07:00:29;12.10;99.90
27619;DHT22;15039;50.830;4.730;2023-11-19T07:02:55;12.10;99.90
27619;DHT22;15039;50.830;4.730;2023-11-19T07:05:21;12.10;99.90
27619;DHT22;15039;50.830;4.730;2023-11-19T07:07:46;12.10;99.90
27619;DHT22;15039;50.830;4.730;2023-11-19T07:10:12;12.10;99.90
27619;DHT22;15039;50.830;4.730;2023-11-19T07:12:38;12.10;99.90
27619;DHT22;15039;50.830;4.730;2023-11-19T07:15:04;12.00;99.90
27619;DHT22;15039;50.830;4.730;2023-11-19T07:17:31;12.00;99.90
27619;DHT22;15039;50.830;4.730;2023-11-19T07:19:56;12.00;99.90
27619;DHT22;15039;50.830;4.730;2023-11-19T07:22:25;12.00;99.90
27619;DHT22;15039;50.830;4.730;2023-11-19T07:24:50;12.10;99.90
27619;DHT22;15039;50.830;4.730;2023-11-19T07:27:17;12.10;99.90
27619;DHT22;15039;50.830;4.730;2023-11-19T07:29:43;12.00;99.90
27619;DHT22;15039;50.830;4.730;2023-11-19T07:32:10;12.10;99.90
27619;DHT22;15039;50.830;4.730;2023-11-19T07:34:36;12.10;99.90
27619;DHT22;15039;50.830;4.730;2023-11-19T07:37:02;12.10;99.90
27619;DHT22;15039;50.830;4.730;2023-11-19T07:39:28;12.10;99.90
27619;DHT22;15039;50.830;4.730;2023-11-19T07:41:54;12.10;99.90
27619;DHT22;15039;50.830;4.730;2023-11-19T07:44:20;12.20;99.90
27619;DHT22;15039;50.830;4.730;2023-11-19T07:46:47;12.20;99.90
27619;DHT22;15039;50.830;4.730;2023-11-19T07:49:13;12.20;99.90
27619;DHT22;15039;50.830;4.730;2023-11-19T07:51:39;12.20;99.90
27619;DHT22;15039;50.830;4.730;2023-11-19T07:54:05;12.30;99.90
27619;DHT22;15039;50.830;4.730;2023-11-19T07:56:34;12.20;99.90
27619;DHT22;15039;50.830;4.730;2023-11-19T07:59:01;12.30;99.90
27619;DHT22;15039;50.830;4.730;2023-11-19T08:01:27;12.30;99.90
27619;DHT22;15039;50.830;4.730;2023-11-19T08:03:53;12.20;99.90
27619;DHT22;15039;50.830;4.730;2023-11-19T08:06:19;12.30;99.90
27619;DHT22;15039;50.830;4.730;2023-11-19T08:08:45;12.30;99.90
27619;DHT22;15039;50.830;4.730;2023-11-19T08:11:10;12.30;99.90
27619;DHT22;15039;50.830;4.730;2023-11-19T08:13:36;12.30;99.90
27619;DHT22;15039;50.830;4.730;2023-11-19T08:16:02;12.40;99.90
27619;DHT22;15039;50.830;4.730;2023-11-19T08:18:27;12.50;99.90
27619;DHT22;15039;50.830;4.730;2023-11-19T08:20:53;12.50;99.90
27619;DHT22;15039;50.830;4.730;2023-11-19T08:23:19;12.50;99.90
27619;DHT22;15039;50.830;4.730;2023-11-19T08:25:45;12.50;99.90
27619;DHT22;15039;50.830;4.730;2023-11-19T08:28:11;12.40;99.90
27619;DHT22;15039;50.830;4.730;2023-11-19T08:30:37;12.50;99.90
27619;DHT22;15039;50.830;4.730;2023-11-19T08:33:03;12.60;99.90
27619;DHT22;15039;50.830;4.730;2023-11-19T08:35:29;12.60;99.90
27619;DHT22;15039;50.830;4.730;2023-11-19T08:37:55;12.60;99.90
27619;DHT22;15039;50.830;4.730;2023-11-19T08:40:21;12.60;99.90
27619;DHT22;15039;50.830;4.730;2023-11-19T08:42:46;12.60;99.90
27619;DHT22;15039;50.830;4.730;2023-11-19T08:45:12;12.70;99.90
27619;DHT22;15039;50.830;4.730;2023-11-19T08:47:37;12.70;99.90
27619;DHT22;15039;50.830;4.730;2023-11-19T08:50:03;12.70;99.90
27619;DHT22;15039;50.830;4.730;2023-11-19T08:52:30;12.70;99.90
27619;DHT22;15039;50.830;4.730;2023-11-19T08:54:57;12.80;99.90
27619;DHT22;15039;50.830;4.730;2023-11-19T08:57:28;12.90;99.90
27619;DHT22;15039;50.830;4.730;2023-11-19T08:59:54;13.00;99.90
27619;DHT22;15039;50.830;4.730;2023-11-19T09:02:19;13.10;99.90
27619;DHT22;15039;50.830;4.730;2023-11-19T09:04:46;13.00;99.90
27619;DHT22;15039;50.830;4.730;2023-11-19T09:07:12;13.00;99.90
27619;DHT22;15039;50.830;4.730;2023-11-19T09:09:38;13.00;99.90
27619;DHT22;15039;50.830;4.730;2023-11-19T09:12:04;13.00;99.90
27619;DHT22;15039;50.830;4.730;2023-11-19T09:14:32;13.10;99.90
27619;DHT22;15039;50.830;4.730;2023-11-19T09:17:00;13.10;99.90
27619;DHT22;15039;50.830;4.730;2023-11-19T09:19:27;13.10;99.90
27619;DHT22;15039;50.830;4.730;2023-11-19T09:21:54;13.20;99.90
27619;DHT22;15039;50.830;4.730;2023-11-19T09:24:20;13.20;99.90
27619;DHT22;15039;50.830;4.730;2023-11-19T09:26:48;13.30;99.90
27619;DHT22;15039;50.830;4.730;2023-11-19T09:29:14;13.40;99.90
27619;DHT22;15039;50.830;4.730;2023-11-19T09:31:40;13.40;99.90
27619;DHT22;15039;50.830;4.730;2023-11-19T09:34:06;13.40;99.90
27619;DHT22;15039;50.830;4.730;2023-11-19T09:36:32;13.40;99.90
27619;DHT22;15039;50.830;4.730;2023-11-19T09:38:58;13.30;99.90
27619;DHT22;15039;50.830;4.730;2023-11-19T09:41:26;13.40;99.90
27619;DHT22;15039;50.830;4.730;2023-11-19T09:43:54;13.40;99.90
27619;DHT22;15039;50.830;4.730;2023-11-19T09:46:21;13.40;99.90
27619;DHT22;15039;50.830;4.730;2023-11-19T09:48:52;13.40;99.90
27619;DHT22;15039;50.830;4.730;2023-11-19T09:51:22;13.50;99.90
27619;DHT22;15039;50.830;4.730;2023-11-19T09:53:52;13.40;99.90
27619;DHT22;15039;50.830;4.730;2023-11-19T09:56:18;13.50;99.90
27619;DHT22;15039;50.830;4.730;2023-11-19T09:58:43;13.40;99.90
27619;DHT22;15039;50.830;4.730;2023-11-19T10:01:09;13.30;99.90
27619;DHT22;15039;50.830;4.730;2023-11-19T10:03:45;13.30;99.90
27619;DHT22;15039;50.830;4.730;2023-11-19T10:06:19;13.30;99.90
27619;DHT22;15039;50.830;4.730;2023-11-19T10:08:44;13.40;99.90
27619;DHT22;15039;50.830;4.730;2023-11-19T10:11:13;13.40;99.90
27619;DHT22;15039;50.830;4.730;2023-11-19T10:13:41;13.30;99.90
27619;DHT22;15039;50.830;4.730;2023-11-19T10:16:12;13.40;99.90
27619;DHT22;15039;50.830;4.730;2023-11-19T10:18:47;13.50;99.90
27619;DHT22;15039;50.830;4.730;2023-11-19T10:21:19;13.50;99.90
27619;DHT22;15039;50.830;4.730;2023-11-19T10:23:53;13.50;99.90
27619;DHT22;15039;50.830;4.730;2023-11-19T10:26:23;13.50;99.90
27619;DHT22;15039;50.830;4.730;2023-11-19T10:29:04;13.50;99.90
27619;DHT22;15039;50.830;4.730;2023-11-19T10:31:30;13.40;99.90
27619;DHT22;15039;50.830;4.730;2023-11-19T10:33:56;13.60;99.90
27619;DHT22;15039;50.830;4.730;2023-11-19T10:36:22;13.60;99.90
27619;DHT22;15039;50.830;4.730;2023-11-19T10:39:02;13.70;99.90
27619;DHT22;15039;50.830;4.730;2023-11-19T10:41:32;13.70;99.90
27619;DHT22;15039;50.830;4.730;2023-11-19T10:43:59;13.80;99.90
27619;DHT22;15039;50.830;4.730;2023-11-19T10:46:42;13.80;99.90
27619;DHT22;15039;50.830;4.730;2023-11-19T10:49:09;13.70;99.90
27619;DHT22;15039;50.830;4.730;2023-11-19T10:51:35;13.90;99.90
27619;DHT22;15039;50.830;4.730;2023-11-19T10:54:05;14.00;99.90
27619;DHT22;15039;50.830;4.730;2023-11-19T10:56:33;14.00;99.90
27619;DHT22;15039;50.830;4.730;2023-11-19T10:59:01;13.90;99.90
27619;DHT22;15039;50.830;4.730;2023-11-19T11:01:39;14.00;99.90
27619;DHT22;15039;50.830;4.730;2023-11-19T11:04:13;14.10;99.90
27619;DHT22;15039;50.830;4.730;2023-11-19T11:06:43;14.00;99.90
27619;DHT22;15039;50.830;4.730;2023-11-19T11:09:11;14.00;99.90
27619;DHT22;15039;50.830;4.730;2023-11-19T11:11:40;14.10;99.90
27619;DHT22;15039;50.830;4.730;2023-11-19T11:14:12;14.00;99.90
27619;DHT22;15039;50.830;4.730;2023-11-19T11:16:43;14.10;99.90
27619;DHT22;15039;50.830;4.730;2023-11-19T11:19:10;14.20;99.90
27619;DHT22;15039;50.830;4.730;2023-11-19T11:21:37;14.20;99.90
27619;DHT22;15039;50.830;4.730;2023-11-19T11:24:30;14.20;99.90
27619;DHT22;15039;50.830;4.730;2023-11-19T11:35:35;14.10;99.90
27619;DHT22;15039;50.830;4.730;2023-11-19T11:38:09;14.00;99.90
27619;DHT22;15039;50.830;4.730;2023-11-19T11:40:35;13.90;99.90
27619;DHT22;15039;50.830;4.730;2023-11-19T11:43:03;14.00;99.90
27619;DHT22;15039;50.830;4.730;2023-11-19T11:45:38;14.00;99.90
27619;DHT22;15039;50.830;4.730;2023-11-19T11:48:15;13.90;99.90
27619;DHT22;15039;50.830;4.730;2023-11-19T11:51:10;13.90;99.90
27619;DHT22;15039;50.830;4.730;2023-11-19T11:53:35;13.90;99.90
27619;DHT22;15039;50.830;4.730;2023-11-19T11:56:02;13.90;99.90
27619;DHT22;15039;50.830;4.730;2023-11-19T11:58:31;13.90;99.90
27619;DHT22;15039;50.830;4.730;2023-11-19T12:00:58;13.90;99.90
27619;DHT22;15039;50.830;4.730;2023-11-19T12:03:27;13.90;99.90
27619;DHT22;15039;50.830;4.730;2023-11-19T12:05:58;13.90;99.90
27619;DHT22;15039;50.830;4.730;2023-11-19T12:08:26;13.90;99.90
27619;DHT22;15039;50.830;4.730;2023-11-19T12:10:58;14.00;99.90
27619;DHT22;15039;50.830;4.730;2023-11-19T12:13:25;14.10;99.90
27619;DHT22;15039;50.830;4.730;2023-11-19T12:16:12;14.10;99.90
27619;DHT22;15039;50.830;4.730;2023-11-19T12:18:40;14.40;99.90
27619;DHT22;15039;50.830;4.730;2023-11-19T12:21:06;14.50;99.90
27619;DHT22;15039;50.830;4.730;2023-11-19T12:23:35;14.50;99.90
27619;DHT22;15039;50.830;4.730;2023-11-19T12:26:00;14.60;99.90
27619;DHT22;15039;50.830;4.730;2023-11-19T12:28:29;14.40;99.90
27619;DHT22;15039;50.830;4.730;2023-11-19T12:31:07;14.50;99.90
27619;DHT22;15039;50.830;4.730;2023-11-19T12:33:35;14.40;99.90
27619;DHT22;15039;50.830;4.730;2023-11-19T12:36:01;14.40;99.90
27619;DHT22;15039;50.830;4.730;2023-11-19T12:38:31;14.20;99.90
27619;DHT22;15039;50.830;4.730;2023-11-19T12:41:07;14.20;99.90
27619;DHT22;15039;50.830;4.730;2023-11-19T12:43:33;14.20;99.90
27619;DHT22;15039;50.830;4.730;2023-11-19T12:46:01;14.20;99.90
27619;DHT22;15039;50.830;4.730;2023-11-19T12:48:27;14.00;99.90
27619;DHT22;15039;50.830;4.730;2023-11-19T12:50:57;13.90;99.90
27619;DHT22;15039;50.830;4.730;2023-11-19T12:53:24;13.70;99.90
27619;DHT22;15039;50.830;4.730;2023-11-19T12:55:52;13.60;99.90
27619;DHT22;15039;50.830;4.730;2023-11-19T12:58:35;13.60;99.90
27619;DHT22;15039;50.830;4.730;2023-11-19T13:01:05;13.70;99.90
27619;DHT22;15039;50.830;4.730;2023-11-19T13:03:36;13.70;99.90
27619;DHT22;15039;50.830;4.730;2023-11-19T13:06:13;13.80;99.90
27619;DHT22;15039;50.830;4.730;2023-11-19T13:08:42;13.80;99.90
27619;DHT22;15039;50.830;4.730;2023-11-19T13:11:10;14.00;99.90
27619;DHT22;15039;50.830;4.730;2023-11-19T13:13:59;14.20;99.90
27619;DHT22;15039;50.830;4.730;2023-11-19T13:16:27;14.20;99.90
27619;DHT22;15039;50.830;4.730;2023-11-19T13:18:52;14.30;99.90
27619;DHT22;15039;50.830;4.730;2023-11-19T13:21:18;14.30;99.90
27619;DHT22;15039;50.830;4.730;2023-11-19T13:23:45;14.30;99.90
27619;DHT22;15039;50.830;4.730;2023-11-19T13:26:13;14.30;99.90
27619;DHT22;15039;50.830;4.730;2023-11-19T13:28:38;14.20;99.90
27619;DHT22;15039;50.830;4.730;2023-11-19T13:31:05;14.20;99.90
27619;DHT22;15039;50.830;4.730;2023-11-19T13:33:33;14.00;99.90
27619;DHT22;15039;50.830;4.730;2023-11-19T13:35:59;14.00;99.90
27619;DHT22;15039;50.830;4.730;2023-11-19T13:38:32;13.90;99.90
27619;DHT22;15039;50.830;4.730;2023-11-19T13:40:59;14.00;99.90
27619;DHT22;15039;50.830;4.730;2023-11-19T13:43:25;14.00;99.90
27619;DHT22;15039;50.830;4.730;2023-11-19T13:45:51;13.90;99.90
27619;DHT22;15039;50.830;4.730;2023-11-19T13:48:18;13.80;99.90
27619;DHT22;15039;50.830;4.730;2023-11-19T13:50:44;13.70;99.90
27619;DHT22;15039;50.830;4.730;2023-11-19T13:53:11;13.70;99.90
27619;DHT22;15039;50.830;4.730;2023-11-19T13:55:37;13.70;99.90
27619;DHT22;15039;50.830;4.730;2023-11-19T13:58:03;13.80;99.90
27619;DHT22;15039;50.830;4.730;2023-11-19T14:00:28;13.60;99.90
27619;DHT22;15039;50.830;4.730;2023-11-19T14:02:54;13.50;99.90
27619;DHT22;15039;50.830;4.730;2023-11-19T14:05:20;13.50;99.90
27619;DHT22;15039;50.830;4.730;2023-11-19T14:07:46;13.50;99.90
27619;DHT22;15039;50.830;4.730;2023-11-19T14:10:18;13.50;99.90
27619;DHT22;15039;50.830;4.730;2023-11-19T14:12:44;13.40;99.90
27619;DHT22;15039;50.830;4.730;2023-11-19T14:15:10;13.30;99.90
27619;DHT22;15039;50.830;4.730;2023-11-19T14:17:47;13.20;99.90
27619;DHT22;15039;50.830;4.730;2023-11-19T14:20:13;13.20;99.90
27619;DHT22;15039;50.830;4.730;2023-11-19T14:22:45;13.20;99.90
27619;DHT22;15039;50.830;4.730;2023-11-19T14:25:14;13.20;99.90
27619;DHT22;15039;50.830;4.730;2023-11-19T14:27:41;13.20;99.90
27619;DHT22;15039;50.830;4.730;2023-11-19T14:30:11;13.30;99.90
27619;DHT22;15039;50.830;4.730;2023-11-19T14:32:38;13.20;99.90
27619;DHT22;15039;50.830;4.730;2023-11-19T14:35:04;13.20;99.90
27619;DHT22;15039;50.830;4.730;2023-11-19T14:37:32;13.30;99.90
27619;DHT22;15039;50.830;4.730;2023-11-19T14:39:57;13.40;99.90
27619;DHT22;15039;50.830;4.730;2023-11-19T14:42:23;13.40;99.90
27619;DHT22;15039;50.830;4.730;2023-11-19T14:44:50;13.50;99.90
27619;DHT22;15039;50.830;4.730;2023-11-19T14:47:18;13.50;99.90
27619;DHT22;15039;50.830;4.730;2023-11-19T14:49:43;13.50;99.90
27619;DHT22;15039;50.830;4.730;2023-11-19T14:52:09;13.40;99.90
27619;DHT22;15039;50.830;4.730;2023-11-19T14:54:35;13.40;99.90
27619;DHT22;15039;50.830;4.730;2023-11-19T14:57:01;13.30;99.90
27619;DHT22;15039;50.830;4.730;2023-11-19T14:59:27;13.30;99.90
27619;DHT22;15039;50.830;4.730;2023-11-19T15:01:58;13.30;99.90
27619;DHT22;15039;50.830;4.730;2023-11-19T15:04:26;13.20;99.90
27619;DHT22;15039;50.830;4.730;2023-11-19T15:06:51;13.20;99.90
27619;DHT22;15039;50.830;4.730;2023-11-19T15:09:19;13.30;99.90
27619;DHT22;15039;50.830;4.730;2023-11-19T15:11:47;13.20;99.90
27619;DHT22;15039;50.830;4.730;2023-11-19T15:14:13;13.30;99.90
27619;DHT22;15039;50.830;4.730;2023-11-19T15:16:44;13.20;99.90
27619;DHT22;15039;50.830;4.730;2023-11-19T15:19:10;13.20;99.90
27619;DHT22;15039;50.830;4.730;2023-11-19T15:21:37;13.20;99.90
27619;DHT22;15039;50.830;4.730;2023-11-19T15:24:03;13.20;99.90
27619;DHT22;15039;50.830;4.730;2023-11-19T15:26:33;13.30;99.90
27619;DHT22;15039;50.830;4.730;2023-11-19T15:28:58;13.30;99.90
27619;DHT22;15039;50.830;4.730;2023-11-19T15:31:24;13.20;99.90
27619;DHT22;15039;50.830;4.730;2023-11-19T15:33:49;13.20;99.90
27619;DHT22;15039;50.830;4.730;2023-11-19T15:36:16;13.20;99.90
27619;DHT22;15039;50.830;4.730;2023-11-19T15:38:43;13.20;99.90
27619;DHT22;15039;50.830;4.730;2023-11-19T15:41:08;13.20;99.90